Time;durP1;ratioP1;P1;durP2;ratioP2;P2;SDS_P1;SDS_P2;PMS_P1;PMS_P2;Temp;Humidity;BMP_temperature;BMP_pressure;BME280_temperature;BME280_humidity;BME280_pressure;Samples;Min_cycle;Max_cycle;Signal;HPM_P1;HPM_P2
2022/01/14 00:01:55;;;;;;;55.13;17.60;;;;;;;2.06;98.38;103732.28;5015783;28;20408;-75
2022/01/14 00:04:21;;;;;;;57.28;17.73;;;;;;;2.06;98.52;103729.59;5008467;28;20100;-75
2022/01/14 00:06:46;;;;;;;70.07;18.58;;;;;;;2.06;98.49;103734.97;5013707;28;20026;-74
2022/01/14 00:09:13;;;;;;;48.08;15.43;;;;;;;2.05;98.51;103738.50;5028832;28;20465;-75
2022/01/14 00:11:42;;;;;;;71.45;16.50;;;;;;;2.03;98.41;103741.19;5008775;28;20030;-74
2022/01/14 00:14:22;;;;;;;64.45;15.95;;;;;;;2.02;98.43;103738.50;5010680;28;20029;-74
2022/01/14 00:16:48;;;;;;;48.90;16.58;;;;;;;1.97;98.59;103735.78;5014370;28;20025;-75
2022/01/14 00:19:14;;;;;;;61.33;14.75;;;;;;;1.99;98.46;103744.72;5023495;28;20061;-74
2022/01/14 00:21:42;;;;;;;40.67;14.45;;;;;;;1.98;98.43;103732.19;5028362;28;20110;-74
2022/01/14 00:35:00;;;;;;;43.42;13.35;;;;;;;1.90;98.41;103722.25;5027777;28;20113;-75
2022/01/14 00:37:25;;;;;;;50.75;12.13;;;;;;;1.90;98.00;103722.25;5021031;28;20251;-73
2022/01/14 00:39:51;;;;;;;64.07;12.70;;;;;;;1.88;98.14;103722.25;5014049;28;20472;-73
2022/01/14 00:42:16;;;;;;;43.78;13.23;;;;;;;1.87;98.46;103716.88;5012948;28;20037;-73
2022/01/14 00:44:42;;;;;;;44.45;12.40;;;;;;;1.82;98.37;103706.09;5025932;28;20053;-74
2022/01/14 00:47:07;;;;;;;50.40;14.20;;;;;;;1.80;98.36;103710.53;5013522;28;20028;-74
2022/01/14 00:49:33;;;;;;;51.33;13.68;;;;;;;1.77;98.45;103706.06;5021561;28;20060;-74
2022/01/14 00:51:58;;;;;;;37.08;13.60;;;;;;;1.76;98.39;103692.59;5022343;28;20026;-75
2022/01/14 00:54:26;;;;;;;42.72;13.15;;;;;;;1.76;98.48;103689.91;5026356;28;20053;-74
2022/01/14 00:59:46;;;;;;;51.55;13.10;;;;;;;1.75;98.50;103685.44;5004660;28;20087;-75
2022/01/14 01:02:11;;;;;;;38.33;11.80;;;;;;;1.74;98.51;103672.91;5022168;28;20458;-75
2022/01/14 01:04:38;;;;;;;49.15;13.70;;;;;;;1.71;98.44;103672.88;5022455;28;20044;-75
2022/01/14 01:07:09;;;;;;;61.42;12.27;;;;;;;1.71;98.31;103673.75;5023820;28;20100;-74
2022/01/14 01:09:37;;;;;;;51.45;11.93;;;;;;;1.70;98.31;103682.72;5018485;28;20477;-74
2022/01/14 01:14:50;;;;;;;52.08;11.93;;;;;;;1.66;98.47;103671.94;5018529;28;20049;-74
2022/01/14 01:17:17;;;;;;;43.08;11.13;;;;;;;1.66;98.48;103672.81;5024764;28;20515;-74
2022/01/14 01:19:43;;;;;;;42.70;11.82;;;;;;;1.65;98.48;103671.03;5019171;28;20113;-74
2022/01/14 01:22:09;;;;;;;33.60;11.70;;;;;;;1.64;98.47;103657.63;5025738;28;20025;-74
2022/01/14 01:24:34;;;;;;;37.38;12.68;;;;;;;1.65;98.53;103660.31;5026689;28;20486;-74
2022/01/14 01:27:05;;;;;;;35.97;11.40;;;;;;;1.65;98.56;103659.41;5021707;28;20406;-74
2022/01/14 01:29:43;;;;;;;37.67;11.65;;;;;;;1.63;98.61;103667.44;5023095;28;20037;-74
2022/01/14 01:32:08;;;;;;;40.05;11.45;;;;;;;1.60;98.56;103667.41;5023117;28;20029;-74
2022/01/14 01:34:35;;;;;;;38.55;12.05;;;;;;;1.58;98.57;103661.09;5023885;28;20404;-74
2022/01/14 01:37:01;;;;;;;34.00;11.43;;;;;;;1.56;98.45;103654.84;5023689;28;20034;-74
2022/01/14 01:39:29;;;;;;;31.48;10.48;;;;;;;1.53;98.42;103661.06;5021207;28;20024;-74
2022/01/14 01:41:58;;;;;;;37.40;11.23;;;;;;;1.52;98.59;103661.06;5022906;28;20034;-74
2022/01/14 01:44:24;;;;;;;42.95;11.88;;;;;;;1.48;98.44;103659.22;5021652;28;20080;-74
2022/01/14 01:46:52;;;;;;;50.90;11.10;;;;;;;1.47;98.76;103663.69;5022751;28;20021;-74
2022/01/14 01:49:22;;;;;;;35.38;10.43;;;;;;;1.44;98.88;103660.97;5023253;28;20366;-74
2022/01/14 01:51:49;;;;;;;33.28;10.77;;;;;;;1.47;98.53;103661.00;5025121;28;20040;-74
2022/01/14 01:54:17;;;;;;;38.20;10.73;;;;;;;1.44;98.51;103660.97;5023139;28;20340;-75
2022/01/14 01:56:42;;;;;;;39.45;9.95;;;;;;;1.46;98.64;103661.91;5009341;28;20068;-74
2022/01/14 01:59:09;;;;;;;53.45;10.52;;;;;;;1.44;98.54;103658.28;5006542;28;20058;-74
2022/01/14 02:01:37;;;;;;;26.15;10.55;;;;;;;1.45;98.45;103661.88;5008734;28;20469;-74
2022/01/14 02:04:02;;;;;;;36.90;10.60;;;;;;;1.45;98.54;103657.41;5007392;28;20395;-75
2022/01/14 02:06:28;;;;;;;50.75;10.77;;;;;;;1.45;98.49;103657.41;5005683;28;20037;-74
2022/01/14 02:08:53;;;;;;;31.00;9.88;;;;;;;1.45;98.37;103652.06;5007809;28;20091;-75
2022/01/14 02:11:18;;;;;;;27.45;11.13;;;;;;;1.44;98.85;103652.91;5014920;28;20022;-74
2022/01/14 02:13:44;;;;;;;30.75;10.57;;;;;;;1.46;98.44;103661.00;5015160;28;20054;-75
2022/01/14 02:16:19;;;;;;;28.55;10.38;;;;;;;1.43;98.48;103651.13;5017579;28;20022;-75
2022/01/14 02:19:00;;;;;;;32.50;11.02;;;;;;;1.44;98.61;103654.69;5021154;28;20030;-74
2022/01/14 02:26:53;;;;;;;29.20;10.35;;;;;;;1.45;98.49;103635.97;5027884;28;20021;-74
2022/01/14 02:29:22;;;;;;;25.60;9.27;;;;;;;1.46;98.30;103636.84;5014224;28;20037;-75
2022/01/14 02:31:48;;;;;;;31.95;9.95;;;;;;;1.44;98.39;103636.81;5030431;28;20032;-73
2022/01/14 02:34:16;;;;;;;51.65;9.57;;;;;;;1.43;98.27;103635.03;5028924;28;20037;-75
2022/01/14 02:36:43;;;;;;;39.20;9.88;;;;;;;1.43;98.16;103631.44;5029795;28;20385;-75
2022/01/14 02:39:10;;;;;;;39.38;9.35;;;;;;;1.41;98.30;103622.50;5028037;28;20096;-75
2022/01/14 02:41:37;;;;;;;36.22;9.38;;;;;;;1.39;98.11;103621.56;5027757;28;20032;-75
2022/01/14 02:44:05;;;;;;;38.03;10.10;;;;;;;1.38;98.24;103625.13;5011719;28;20120;-75
2022/01/14 02:46:37;;;;;;;37.05;9.65;;;;;;;1.37;98.30;103628.72;5021525;28;20021;-74
2022/01/14 02:49:03;;;;;;;35.42;9.68;;;;;;;1.36;98.03;103629.59;5022146;28;20100;-76
2022/01/14 02:51:28;;;;;;;38.88;9.05;;;;;;;1.38;98.03;103622.47;5030201;28;20444;-75
2022/01/14 02:54:09;;;;;;;27.65;8.93;;;;;;;1.39;98.23;103616.19;5040518;28;20053;-75
2022/01/14 02:56:35;;;;;;;25.27;8.80;;;;;;;1.40;98.18;103621.59;5028936;28;20029;-75
2022/01/14 02:59:01;;;;;;;25.77;9.10;;;;;;;1.44;98.08;103630.56;5011626;28;20033;-75
2022/01/14 03:01:27;;;;;;;24.83;9.65;;;;;;;1.42;98.03;103624.28;5023793;28;20041;-74
2022/01/14 03:03:57;;;;;;;31.75;9.35;;;;;;;1.41;97.84;103626.06;5023266;28;20040;-75
2022/01/14 03:06:25;;;;;;;36.20;9.60;;;;;;;1.38;98.06;103620.66;5025904;28;20021;-74
2022/01/14 03:08:50;;;;;;;47.97;9.27;;;;;;;1.35;97.80;103628.69;5027437;28;20033;-75
2022/01/14 03:11:23;;;;;;;26.45;8.63;;;;;;;1.30;97.72;103626.84;5029793;28;20017;-74
2022/01/14 03:13:48;;;;;;;46.42;8.25;;;;;;;1.27;97.80;103623.25;5017236;28;20037;-75
2022/01/14 03:16:18;;;;;;;32.08;9.25;;;;;;;1.23;97.81;103629.47;5027638;28;20029;-75
2022/01/14 03:18:47;;;;;;;31.10;8.68;;;;;;;1.22;97.81;103627.66;5024124;28;20425;-75
2022/01/14 03:21:14;;;;;;;43.38;9.40;;;;;;;1.21;97.86;103631.25;5023195;28;20429;-74
2022/01/14 03:23:47;;;;;;;34.90;8.90;;;;;;;1.19;97.79;103622.25;5029823;28;20052;-75
2022/01/14 03:26:13;;;;;;;;;;;;;;;1.23;97.84;103621.41;5027293;28;20028;-74
2022/01/14 03:28:39;;;;;;;35.70;8.68;;;;;;;1.18;97.88;103623.16;5026031;28;19917;-74
2022/01/14 03:31:04;;;;;;;27.27;8.55;;;;;;;1.19;97.80;103626.72;5029879;28;20029;-75
2022/01/14 03:33:29;;;;;;;30.38;8.73;;;;;;;1.17;97.84;103613.31;5019248;28;20022;-74
2022/01/14 03:35:55;;;;;;;37.67;8.25;;;;;;;1.16;97.83;103616.84;5016461;28;20033;-75
2022/01/14 03:38:20;;;;;;;21.52;8.18;;;;;;;1.16;97.76;103611.47;5030252;28;20033;-75
2022/01/14 03:40:45;;;;;;;53.67;8.82;;;;;;;1.16;97.89;103619.53;5027506;28;20029;-74
2022/01/14 03:43:11;;;;;;;40.25;8.38;;;;;;;1.14;97.91;103615.06;5017261;28;20026;-76
2022/01/14 03:45:38;;;;;;;35.63;8.55;;;;;;;1.14;97.92;103624.00;5029310;28;20105;-75
2022/01/14 03:48:05;;;;;;;31.80;8.80;;;;;;;1.16;97.99;103621.31;5023047;28;20421;-75
2022/01/14 03:50:30;;;;;;;24.08;8.13;;;;;;;1.18;98.06;103617.78;5028094;28;20481;-74
2022/01/14 03:52:56;;;;;;;40.90;9.32;;;;;;;1.21;97.95;103615.16;5029396;28;20030;-74
2022/01/14 03:55:21;;;;;;;25.73;8.10;;;;;;;1.21;97.65;103614.22;5027146;28;20108;-75
2022/01/14 03:57:46;;;;;;;54.92;8.50;;;;;;;1.21;97.84;103617.84;5025947;28;20039;-74
2022/01/14 04:00:12;;;;;;;51.78;9.10;;;;;;;1.20;97.95;103620.47;5024593;28;20064;-75
2022/01/14 04:02:38;;;;;;;59.88;10.18;;;;;;;1.18;97.85;103622.25;5028186;28;20091;-74
2022/01/14 04:05:03;;;;;;;33.97;9.13;;;;;;;1.19;97.82;103621.38;5027393;28;20021;-75
2022/01/14 04:07:29;;;;;;;29.80;9.02;;;;;;;1.18;97.88;103608.84;5028927;28;20036;-75
2022/01/14 04:09:54;;;;;;;40.65;8.90;;;;;;;1.16;98.06;103610.59;5024400;28;20021;-74
2022/01/14 04:12:32;;;;;;;49.55;8.95;;;;;;;1.13;98.06;103613.25;5024992;28;20029;-74
2022/01/14 04:17:22;;;;;;;49.28;8.77;;;;;;;1.06;98.10;103601.53;5025122;28;20033;-75
2022/01/14 04:19:48;;;;;;;60.45;9.90;;;;;;;1.06;98.06;103603.34;5008516;28;20485;-74
2022/01/14 04:22:13;;;;;;;39.38;8.75;;;;;;;1.07;98.19;103605.13;5021484;28;20075;-74
2022/01/14 04:24:38;;;;;;;50.30;8.70;;;;;;;1.08;98.50;103598.91;5027005;28;20025;-75
2022/01/14 04:27:04;;;;;;;41.70;8.20;;;;;;;1.07;98.05;103597.09;5014138;28;20025;-75
2022/01/14 04:29:29;;;;;;;61.60;8.80;;;;;;;1.07;98.25;103599.75;5036440;28;20370;-74
2022/01/14 04:31:54;;;;;;;58.70;9.25;;;;;;;1.08;98.45;103597.13;5025541;28;20190;-74
2022/01/14 04:34:19;;;;;;;37.40;9.48;;;;;;;1.06;98.09;103593.50;5024911;28;20065;-74
2022/01/14 04:36:45;;;;;;;46.53;10.00;;;;;;;1.09;98.17;103600.69;5028480;28;20025;-75
2022/01/14 04:39:10;;;;;;;18.80;7.75;;;;;;;1.10;98.21;103605.16;5028678;28;20025;-75
2022/01/14 04:41:36;;;;;;;60.88;9.77;;;;;;;1.09;98.14;103598.91;5026187;28;20022;-74
2022/01/14 04:44:02;;;;;;;54.22;10.05;;;;;;;1.11;98.03;103590.88;5008446;28;20034;-74
2022/01/14 04:48:53;;;;;;;29.30;8.85;;;;;;;1.07;98.48;103581.00;5027291;28;20091;-75
2022/01/14 04:51:21;;;;;;;37.35;9.57;;;;;;;1.04;97.97;103581.00;5028121;28;20614;-74
2022/01/14 04:53:47;;;;;;;39.20;9.50;;;;;;;1.06;98.10;103587.25;5028290;28;20073;-74
2022/01/14 04:56:13;;;;;;;40.78;9.00;;;;;;;1.06;98.25;103576.53;5024149;28;20091;-75
2022/01/14 04:58:38;;;;;;;34.17;9.50;;;;;;;1.07;98.14;103575.63;5011827;28;20021;-74
2022/01/14 05:01:03;;;;;;;25.48;9.60;;;;;;;1.07;98.21;103572.97;5024149;28;20037;-74
2022/01/14 05:03:30;;;;;;;44.10;9.88;;;;;;;1.05;97.88;103561.34;5010559;28;20037;-74
2022/01/14 05:05:58;;;;;;;50.70;10.07;;;;;;;1.02;98.31;103557.72;5013630;28;20087;-74
2022/01/14 05:08:27;;;;;;;74.03;10.05;;;;;;;1.00;98.28;103559.50;5028280;28;20093;-74
2022/01/14 05:13:25;;;;;;;48.75;9.30;;;;;;;1.00;98.23;103554.13;5012725;28;20037;-73
2022/01/14 05:15:51;;;;;;;45.53;9.55;;;;;;;0.99;98.34;103552.34;5024445;28;20029;-73
2022/01/14 05:18:17;;;;;;;41.20;8.98;;;;;;;0.99;98.22;103551.44;5021869;28;20060;-74
2022/01/14 05:20:42;;;;;;;60.83;8.93;;;;;;;0.94;98.22;103548.72;5010046;28;20057;-74
2022/01/14 05:23:08;;;;;;;50.55;9.18;;;;;;;0.94;98.25;103551.41;5027704;28;20041;-74
2022/01/14 05:25:33;;;;;;;42.92;9.23;;;;;;;0.90;98.18;103549.56;5028540;28;20477;-74
2022/01/14 05:27:58;;;;;;;33.45;8.52;;;;;;;0.87;98.16;103544.16;5023633;28;20021;-75
2022/01/14 05:30:23;;;;;;;34.70;8.10;;;;;;;0.86;98.48;103549.50;5019552;28;20029;-74
2022/01/14 05:32:52;;;;;;;20.58;8.82;;;;;;;0.90;98.28;103551.34;5025926;28;20469;-74
2022/01/14 05:35:22;;;;;;;52.50;9.50;;;;;;;0.90;98.16;103554.94;5018819;28;20492;-74
2022/01/14 05:37:48;;;;;;;56.83;9.02;;;;;;;0.85;98.21;103547.72;5025060;28;20083;-75
2022/01/14 05:40:15;;;;;;;25.02;6.93;;;;;;;0.85;98.16;103547.72;5025622;28;20393;-74
2022/01/14 05:42:40;;;;;;;41.50;8.18;;;;;;;0.83;98.22;103541.44;5018217;28;20082;-75
2022/01/14 05:45:08;;;;;;;33.55;8.57;;;;;;;0.84;98.17;103538.78;5020206;28;20026;-74
2022/01/14 05:47:34;;;;;;;52.78;8.55;;;;;;;0.77;98.07;103532.44;5013598;28;20057;-75
2022/01/14 05:50:00;;;;;;;27.98;8.00;;;;;;;0.77;98.14;103534.22;5028567;28;20087;-75
2022/01/14 05:52:25;;;;;;;38.25;7.93;;;;;;;0.76;98.10;103532.44;5031450;28;20033;-75
2022/01/14 05:54:53;;;;;;;16.60;7.68;;;;;;;0.77;98.10;103531.53;5027214;28;20486;-74
2022/01/14 05:57:19;;;;;;;18.58;8.13;;;;;;;0.77;98.32;103531.53;5017519;28;20068;-75
2022/01/14 05:59:44;;;;;;;38.10;9.02;;;;;;;0.77;98.16;103528.88;5017073;28;20517;-75
2022/01/14 06:02:09;;;;;;;43.00;7.97;;;;;;;0.73;98.37;103538.63;5031286;28;20064;-75
2022/01/14 06:04:34;;;;;;;28.75;7.68;;;;;;;0.74;98.32;103539.53;5027175;28;20033;-75
2022/01/14 06:07:03;;;;;;;23.23;8.32;;;;;;;0.73;98.41;103533.28;5029936;28;20044;-75
2022/01/14 06:09:28;;;;;;;34.63;8.40;;;;;;;0.74;98.16;103536.84;5029936;28;20427;-74
2022/01/14 06:11:53;;;;;;;22.25;7.18;;;;;;;0.74;98.85;103543.09;5026917;28;20116;-74
2022/01/14 06:14:18;;;;;;;24.80;7.18;;;;;;;0.76;98.28;103549.41;5015510;28;20034;-74
2022/01/14 06:16:44;;;;;;;19.30;7.70;;;;;;;0.75;97.91;103552.97;5016970;28;20049;-75
2022/01/14 06:19:09;;;;;;;29.63;8.65;;;;;;;0.76;97.94;103554.75;5025279;28;20088;-74
2022/01/14 06:21:35;;;;;;;15.00;7.00;;;;;;;0.78;98.10;103562.81;5019906;28;20460;-75
2022/01/14 06:24:00;;;;;;;25.15;7.80;;;;;;;0.78;98.06;103549.41;5030800;28;20028;-74
2022/01/14 06:26:25;;;;;;;31.95;8.20;;;;;;;0.77;97.68;103563.69;5027012;28;20045;-74
2022/01/14 06:28:51;;;;;;;42.38;7.88;;;;;;;0.72;97.83;103563.63;5014891;28;20033;-74
2022/01/14 06:31:16;;;;;;;33.38;8.40;;;;;;;0.71;97.88;103556.50;5026260;28;20112;-74
2022/01/14 06:33:42;;;;;;;30.08;7.10;;;;;;;0.70;97.62;103551.09;5022789;28;20084;-74
2022/01/14 06:36:07;;;;;;;27.35;7.55;;;;;;;0.68;97.63;103547.50;5027923;28;20083;-75
2022/01/14 06:38:32;;;;;;;41.88;7.97;;;;;;;0.61;97.61;103543.88;5032072;28;20112;-75
2022/01/14 06:40:59;;;;;;;40.05;8.02;;;;;;;0.56;97.68;103540.25;5025138;28;20033;-74
2022/01/14 06:43:24;;;;;;;36.42;7.63;;;;;;;0.55;97.88;103554.47;5016905;28;20032;-74
2022/01/14 06:45:50;;;;;;;34.63;8.07;;;;;;;0.56;97.83;103536.63;5017014;28;20018;-75
2022/01/14 06:48:15;;;;;;;37.00;8.18;;;;;;;0.54;97.89;103533.06;5025557;28;20405;-73
2022/01/14 06:50:40;;;;;;;25.25;8.50;;;;;;;0.53;97.82;103544.66;5016829;28;20026;-75
2022/01/14 06:53:05;;;;;;;47.50;7.88;;;;;;;0.56;97.83;103537.56;5013215;28;20032;-74
2022/01/14 06:55:31;;;;;;;29.58;7.97;;;;;;;0.57;97.78;103538.47;5016728;28;20462;-74
2022/01/14 06:57:56;;;;;;;37.80;8.05;;;;;;;0.55;98.25;103534.84;5020217;28;20029;-74
2022/01/14 07:00:22;;;;;;;20.58;7.90;;;;;;;0.56;97.86;103548.28;5026599;28;20030;-74
2022/01/14 07:02:48;;;;;;;32.67;8.23;;;;;;;0.56;97.62;103544.66;5026427;28;20064;-74
2022/01/14 07:05:14;;;;;;;30.88;7.93;;;;;;;0.54;97.72;103541.97;5024402;28;20026;-73
2022/01/14 07:07:40;;;;;;;33.28;9.05;;;;;;;0.52;97.75;103551.78;5025173;28;20366;-75
2022/01/14 07:10:06;;;;;;;27.00;7.90;;;;;;;0.53;97.89;103553.59;5025643;28;20035;-74
2022/01/14 07:12:37;;;;;;;25.58;6.97;;;;;;;0.54;97.78;103547.34;5023611;28;20117;-74
2022/01/14 07:15:10;;;;;;;32.40;7.97;;;;;;;0.54;97.84;103550.00;5016909;28;20075;-75
2022/01/14 07:17:35;;;;;;;;;;;;;;;0.59;97.62;103556.31;5031147;28;20036;-75
2022/01/14 07:20:06;;;;;;;32.70;6.95;;;;;;;0.51;97.69;103549.97;5010314;28;19913;-75
2022/01/14 07:22:32;;;;;;;40.65;8.23;;;;;;;0.48;97.74;103561.56;5027959;28;20025;-75
2022/01/14 07:24:58;;;;;;;35.47;8.18;;;;;;;0.49;97.58;103570.47;5029136;28;20060;-74
2022/01/14 07:27:24;;;;;;;36.38;8.48;;;;;;;0.48;97.75;103560.66;5018876;28;20512;-74
2022/01/14 07:29:49;;;;;;;34.97;7.97;;;;;;;0.46;97.78;103562.41;5027332;28;20034;-75
2022/01/14 07:32:14;;;;;;;26.35;8.15;;;;;;;0.41;97.43;103556.97;5030534;28;20025;-74
2022/01/14 07:34:40;;;;;;;36.85;9.35;;;;;;;0.37;97.83;103556.91;5018476;28;20136;-76
2022/01/14 07:37:05;;;;;;;52.10;8.93;;;;;;;0.36;97.72;103552.44;5025789;28;20052;-75
2022/01/14 07:39:30;;;;;;;75.43;10.82;;;;;;;0.36;97.96;103566.72;5028082;28;20565;-75
2022/01/14 07:41:55;;;;;;;32.60;8.45;;;;;;;0.35;98.05;103562.25;5027196;28;20029;-75
2022/01/14 07:44:21;;;;;;;42.75;9.07;;;;;;;0.38;97.94;103574.81;5011037;28;20030;-74
2022/01/14 07:46:47;;;;;;;26.15;8.57;;;;;;;0.37;98.02;103567.63;5015321;28;20028;-75
2022/01/14 07:49:13;;;;;;;41.08;8.85;;;;;;;0.38;98.02;103559.63;5026934;28;20040;-75
2022/01/14 07:51:39;;;;;;;50.17;9.00;;;;;;;0.37;98.05;103572.97;5027739;28;20028;-74
2022/01/14 07:54:05;;;;;;;54.60;9.63;;;;;;;0.37;97.95;103570.31;5030531;28;20092;-76
2022/01/14 07:57:00;;;;;;;31.05;9.25;;;;;;;0.39;98.20;103563.22;5028612;28;20033;-75
2022/01/14 07:59:29;;;;;;;30.27;9.15;;;;;;;0.41;98.06;103558.75;5007716;28;20077;-74
2022/01/14 08:01:58;;;;;;;33.25;9.45;;;;;;;0.42;98.06;103568.59;5043713;28;20485;-74
2022/01/14 08:04:23;;;;;;;21.95;10.02;;;;;;;0.46;98.37;103578.47;5027099;28;20025;-74
2022/01/14 08:06:51;;;;;;;28.00;9.23;;;;;;;0.53;98.11;103572.31;5028743;28;20492;-74
2022/01/14 08:09:17;;;;;;;51.55;9.18;;;;;;;0.52;97.99;103570.53;5026971;28;20473;-74
2022/01/14 08:11:44;;;;;;;70.60;9.88;;;;;;;0.52;97.94;103564.28;5027474;28;20489;-74
2022/01/14 08:14:10;;;;;;;53.20;9.27;;;;;;;0.48;97.86;103541.91;5010824;28;20423;-75
2022/01/14 08:16:35;;;;;;;36.88;10.10;;;;;;;0.47;97.75;103549.06;5027680;28;20025;-75
2022/01/14 08:19:01;;;;;;;39.92;10.70;;;;;;;0.46;98.02;103540.97;5026144;28;20105;-75
2022/01/14 08:21:26;;;;;;;48.70;9.35;;;;;;;0.46;97.97;103552.59;5028152;28;20034;-74
2022/01/14 08:23:51;;;;;;;28.73;9.43;;;;;;;0.47;98.01;103548.16;5019273;28;20049;-74
2022/01/14 08:26:17;;;;;;;47.45;10.52;;;;;;;0.53;98.21;103550.00;5028949;28;20022;-75
2022/01/14 08:28:42;;;;;;;41.13;9.70;;;;;;;0.56;98.08;103555.38;5016004;28;20037;-74
2022/01/14 08:31:08;;;;;;;52.40;10.73;;;;;;;0.58;98.18;103553.63;5019093;28;20036;-75
2022/01/14 08:33:33;;;;;;;41.88;10.40;;;;;;;0.57;98.03;103565.25;5022713;28;20038;-75
2022/01/14 08:35:59;;;;;;;39.25;10.63;;;;;;;0.61;97.94;103551.91;5024617;28;20026;-74
2022/01/14 08:38:24;;;;;;;54.33;11.05;;;;;;;0.66;97.84;103554.63;5028992;28;20024;-74
2022/01/14 08:40:50;;;;;;;53.95;10.85;;;;;;;0.68;97.85;103569.84;5021804;28;20041;-74
2022/01/14 08:43:15;;;;;;;32.33;9.55;;;;;;;0.70;98.11;103557.38;5017548;28;20062;-75
2022/01/14 08:45:41;;;;;;;47.08;10.38;;;;;;;0.75;98.02;103568.16;5019991;28;20026;-74
2022/01/14 08:48:06;;;;;;;34.33;11.20;;;;;;;0.71;97.82;103572.56;5024813;28;20033;-74
2022/01/14 08:50:35;;;;;;;31.17;10.32;;;;;;;0.77;97.86;103575.31;5018272;28;20464;-74
2022/01/14 08:53:02;;;;;;;80.95;12.40;;;;;;;0.82;97.83;103566.44;5027335;28;20025;-74
2022/01/14 08:55:28;;;;;;;35.08;11.40;;;;;;;0.84;97.98;103567.34;5016678;28;20060;-74
2022/01/14 08:57:55;;;;;;;48.05;11.05;;;;;;;0.88;97.75;103551.31;5032421;28;20056;-74
2022/01/14 09:00:25;;;;;;;39.10;11.43;;;;;;;0.90;97.95;103549.56;5014556;28;20048;-74
2022/01/14 09:02:54;;;;;;;42.70;11.82;;;;;;;0.94;97.79;103558.53;5027025;28;20025;-74
2022/01/14 09:05:20;;;;;;;44.38;11.98;;;;;;;0.93;97.48;103543.31;5026444;28;20029;-75
2022/01/14 09:07:46;;;;;;;46.10;12.07;;;;;;;0.97;97.93;103567.50;5028046;28;20052;-75
2022/01/14 09:10:12;;;;;;;40.40;12.02;;;;;;;1.00;97.86;103555.94;5027399;28;20555;-75
2022/01/14 09:12:37;;;;;;;64.40;12.10;;;;;;;1.04;97.71;103562.22;5011476;28;20053;-75
2022/01/14 09:15:05;;;;;;;48.53;11.25;;;;;;;1.09;97.78;103556.03;5028077;28;20022;-74
2022/01/14 09:17:30;;;;;;;45.08;11.45;;;;;;;1.11;97.80;103564.06;5027397;28;20032;-74
2022/01/14 09:19:56;;;;;;;50.35;10.60;;;;;;;1.13;97.67;103536.41;5013700;28;20026;-75
2022/01/14 09:22:22;;;;;;;34.50;11.23;;;;;;;1.16;97.93;103547.16;5023223;28;20409;-74
2022/01/14 09:24:47;;;;;;;29.15;10.50;;;;;;;1.24;98.13;103566.91;5025640;28;20075;-75
2022/01/14 09:27:14;;;;;;;36.08;11.80;;;;;;;1.33;97.89;103559.84;5023426;28;20425;-75
2022/01/14 09:29:40;;;;;;;27.17;10.80;;;;;;;1.41;97.92;103560.81;5013364;28;20034;-75
2022/01/14 09:32:07;;;;;;;42.67;11.48;;;;;;;1.45;97.63;103559.97;5028851;28;20094;-75
2022/01/14 09:34:34;;;;;;;35.00;10.93;;;;;;;1.48;97.80;103555.50;5026145;28;20057;-75
2022/01/14 09:37:00;;;;;;;40.55;10.70;;;;;;;1.52;97.41;103557.31;5022435;28;20037;-74
2022/01/14 09:39:25;;;;;;;30.70;11.13;;;;;;;1.58;97.48;103567.19;5024717;28;20029;-74
2022/01/14 09:41:50;;;;;;;62.15;12.15;;;;;;;1.59;97.23;103566.34;5024199;28;20104;-74
2022/01/14 09:44:17;;;;;;;30.88;10.73;;;;;;;1.60;97.37;103572.59;5010720;28;20045;-75
2022/01/14 09:46:42;;;;;;;30.00;11.10;;;;;;;1.63;97.20;103570.84;5026084;28;20033;-74
2022/01/14 09:49:08;;;;;;;57.13;11.65;;;;;;;1.65;96.70;103579.81;5018412;28;20120;-75
2022/01/14 09:51:33;;;;;;;35.85;11.55;;;;;;;1.64;97.12;103582.50;5027147;28;20392;-74
2022/01/14 09:53:58;;;;;;;44.90;11.23;;;;;;;1.63;96.71;103588.72;5023953;28;20513;-74
2022/01/14 09:56:24;;;;;;;25.75;10.32;;;;;;;1.64;96.88;103587.84;5025495;28;20040;-74
2022/01/14 09:58:51;;;;;;;26.95;9.85;;;;;;;1.65;97.25;103585.16;5009965;28;20022;-75
2022/01/14 10:01:22;;;;;;;22.50;10.52;;;;;;;1.68;97.08;103587.91;5020709;28;20095;-75
2022/01/14 10:04:03;;;;;;;41.30;11.88;;;;;;;1.71;96.95;103589.69;5025909;28;20099;-74
2022/01/14 10:06:36;;;;;;;26.02;11.35;;;;;;;1.71;96.72;103587.91;5027041;28;20032;-74
2022/01/14 10:09:11;;;;;;;37.30;11.93;;;;;;;1.76;96.97;103591.50;5027816;28;20349;-74
2022/01/14 10:11:42;;;;;;;35.15;11.93;;;;;;;1.75;97.08;103592.41;5020729;28;20119;-75
2022/01/14 10:14:16;;;;;;;27.98;11.15;;;;;;;1.78;96.99;103592.44;5009717;28;20121;-75
2022/01/14 10:16:43;;;;;;;32.55;11.32;;;;;;;1.83;96.69;103594.28;5022560;28;20481;-74
2022/01/14 10:19:18;;;;;;;38.97;12.05;;;;;;;1.87;96.85;103598.78;5013190;28;20022;-75
2022/01/14 10:21:43;;;;;;;21.88;10.93;;;;;;;1.87;96.71;103591.63;5017186;28;20025;-74
2022/01/14 10:24:11;;;;;;;38.40;11.32;;;;;;;1.86;96.29;103588.91;5022789;28;20148;-75
2022/01/14 10:26:52;;;;;;;28.45;11.50;;;;;;;1.92;96.81;103587.19;5016550;28;20096;-74
2022/01/14 10:29:30;;;;;;;25.50;10.43;;;;;;;1.97;96.83;103584.53;5015047;28;20036;-74
2022/01/14 10:31:57;;;;;;;29.60;10.85;;;;;;;2.00;96.65;103593.50;5027101;28;20037;-74
2022/01/14 10:34:22;;;;;;;31.27;11.98;;;;;;;2.03;96.53;103593.53;5019275;28;20392;-75
2022/01/14 10:36:50;;;;;;;30.35;11.13;;;;;;;2.03;96.53;103589.94;5030303;28;20033;-74
2022/01/14 10:39:26;;;;;;;29.17;11.85;;;;;;;2.04;96.30;103591.72;5019759;28;20428;-75
2022/01/14 10:41:55;;;;;;;28.27;12.35;;;;;;;2.05;96.74;103577.41;5029697;28;20033;-74
2022/01/14 10:44:28;;;;;;;32.33;12.20;;;;;;;2.09;96.95;103586.41;5013644;28;20030;-74
2022/01/14 10:47:16;;;;;;;30.73;13.30;;;;;;;2.12;96.57;103579.28;5030559;28;20171;-75
2022/01/14 10:49:43;;;;;;;30.38;12.45;;;;;;;2.17;96.69;103577.50;5017871;28;20053;-75
2022/01/14 10:52:18;;;;;;;23.73;12.48;;;;;;;2.24;96.67;103574.00;5030394;28;20094;-75
2022/01/14 10:54:46;;;;;;;30.80;12.38;;;;;;;2.23;96.52;103569.47;5028656;28;20096;-74
2022/01/14 10:57:14;;;;;;;25.63;11.90;;;;;;;2.26;96.46;103574.88;5015445;28;20099;-74
2022/01/14 10:59:39;;;;;;;23.65;12.15;;;;;;;2.28;96.13;103570.44;5011469;28;20034;-75
2022/01/14 11:02:36;;;;;;;29.30;13.60;;;;;;;2.36;96.52;103569.56;5027666;28;20033;-74
2022/01/14 11:05:05;;;;;;;28.08;13.15;;;;;;;2.41;96.28;103562.44;5027527;28;20060;-74
2022/01/14 11:07:31;;;;;;;30.58;13.63;;;;;;;2.44;96.38;103557.97;5028800;28;20027;-75
2022/01/14 11:09:58;;;;;;;27.65;12.07;;;;;;;2.48;96.40;103556.22;5021754;28;20345;-75
2022/01/14 11:12:24;;;;;;;27.45;13.13;;;;;;;2.50;96.04;103543.66;5024569;28;20152;-75
2022/01/14 11:14:49;;;;;;;26.35;12.13;;;;;;;2.53;96.22;103549.97;5012249;28;20092;-74
2022/01/14 11:17:15;;;;;;;30.10;12.63;;;;;;;2.58;96.66;103547.28;5008442;28;20034;-75
2022/01/14 11:19:45;;;;;;;30.10;13.55;;;;;;;2.63;96.57;103542.84;5016905;28;20029;-75
2022/01/14 11:24:54;;;;;;;30.85;13.75;;;;;;;2.73;95.85;103549.13;5007152;28;20125;-75
2022/01/14 11:27:20;;;;;;;25.98;12.50;;;;;;;2.77;95.89;103553.63;5010154;28;20108;-74
2022/01/14 11:29:47;;;;;;;23.42;11.80;;;;;;;2.77;96.00;103554.53;5009850;28;20040;-74
2022/01/14 11:32:13;;;;;;;33.05;13.75;;;;;;;2.78;96.08;103555.44;5022907;28;20018;-74
2022/01/14 11:34:47;;;;;;;33.20;14.90;;;;;;;2.77;95.90;103553.63;5012607;28;20033;-75
2022/01/14 11:37:14;;;;;;;29.40;14.45;;;;;;;2.76;95.54;103552.75;5006063;28;20108;-74
2022/01/14 11:39:52;;;;;;;36.17;14.50;;;;;;;2.79;96.10;103554.53;5012734;28;20422;-75
2022/01/14 11:42:18;;;;;;;27.05;13.77;;;;;;;2.85;96.05;103553.69;5010519;28;20116;-74
2022/01/14 11:47:38;;;;;;;31.30;13.63;;;;;;;2.92;96.22;103550.09;5009551;28;20541;-75
2022/01/14 11:50:07;;;;;;;27.17;13.43;;;;;;;2.91;95.77;103538.44;5024606;28;20288;-74
2022/01/14 11:52:40;;;;;;;31.30;15.00;;;;;;;2.90;96.08;103542.03;5007923;28;20151;-74
2022/01/14 11:55:14;;;;;;;30.25;13.93;;;;;;;2.93;96.08;103542.03;5011749;28;20106;-73
2022/01/14 11:57:45;;;;;;;28.83;14.88;;;;;;;2.96;96.14;103535.78;5007895;28;20076;-74